createdAt,value
2023-06-15T00:00:20.047Z,101441.63
2023-06-15T00:02:48.646Z,101438.81
2023-06-15T00:05:17.872Z,101344.03
2023-06-15T00:07:47.822Z,101441.50
2023-06-15T00:10:16.144Z,101401.75
2023-06-15T00:12:44.298Z,101440.56
2023-06-15T00:15:13.114Z,101442.38
2023-06-15T00:17:43.209Z,101441.50
2023-06-15T00:20:13.639Z,101353.28
2023-06-15T00:22:42.842Z,101433.47
2023-06-15T00:25:12.745Z,101436.16
2023-06-15T00:27:40.919Z,101427.13
2023-06-15T00:30:11.711Z,101408.06
2023-06-15T00:32:42.991Z,101421.78
2023-06-15T00:35:11.305Z,101416.66
2023-06-15T00:37:39.571Z,101353.16
2023-06-15T00:40:08.887Z,101420.91
2023-06-15T00:42:38.451Z,101421.78
2023-06-15T00:45:07.676Z,101412.13
2023-06-15T00:47:40.225Z,101352.66
2023-06-15T00:50:11.899Z,101327.31
2023-06-15T00:52:40.633Z,101413.84
2023-06-15T00:55:13.803Z,101414.66
2023-06-15T00:57:46.311Z,101400.75
2023-06-15T01:00:16.052Z,101312.09
2023-06-15T01:02:46.143Z,101319.16
2023-06-15T01:05:17.899Z,101390.28
2023-06-15T01:07:50.058Z,101399.69
2023-06-15T01:10:20.317Z,101402.13
2023-06-15T01:12:52.372Z,101408.47
2023-06-15T01:15:21.036Z,101403.94
2023-06-15T01:17:55.417Z,101398.56
2023-06-15T01:20:28.817Z,101396.88
2023-06-15T01:23:03.274Z,101388.09
2023-06-15T01:25:38.929Z,101393.19
2023-06-15T01:28:10.906Z,101250.25
2023-06-15T01:30:43.509Z,101390.03
2023-06-15T01:33:12.824Z,101400.53
2023-06-15T01:35:41.107Z,101396.00
2023-06-15T01:38:09.738Z,101391.50
2023-06-15T01:40:40.851Z,101393.44
2023-06-15T01:43:13.210Z,101395.19
2023-06-15T01:45:43.535Z,101390.63
2023-06-15T01:48:12.489Z,101393.31
2023-06-15T01:50:42.837Z,101400.53
2023-06-15T01:53:11.249Z,101391.50
2023-06-15T01:55:39.481Z,101393.19
2023-06-15T01:58:07.708Z,101391.50
2023-06-15T02:00:37.617Z,101387.00
2023-06-15T02:03:05.973Z,101380.25
2023-06-15T02:05:40.252Z,101384.44
2023-06-15T02:08:09.206Z,101367.09
2023-06-15T02:10:37.426Z,101379.78
2023-06-15T02:13:05.967Z,101373.47
2023-06-15T02:15:34.060Z,101374.28
2023-06-15T02:18:04.192Z,101376.13
2023-06-15T02:20:33.557Z,101377.09
2023-06-15T02:23:03.505Z,101379.78
2023-06-15T02:25:33.007Z,101378.22
2023-06-15T02:28:01.170Z,101382.47
2023-06-15T02:30:29.522Z,101388.81
2023-06-15T02:33:01.690Z,101393.19
2023-06-15T02:35:31.796Z,101392.38
2023-06-15T02:37:59.946Z,101360.28
2023-06-15T02:40:28.117Z,101380.78
2023-06-15T02:42:56.366Z,101386.13
2023-06-15T02:45:24.729Z,101385.16
2023-06-15T02:47:52.901Z,101390.63
2023-06-15T02:50:21.379Z,101359.22
2023-06-15T02:52:50.961Z,101382.72
2023-06-15T02:55:19.317Z,101382.72
2023-06-15T02:57:47.753Z,101387.00
2023-06-15T03:00:18.885Z,101392.38
2023-06-15T03:02:47.610Z,101391.50
2023-06-15T03:05:16.353Z,101396.88
2023-06-15T03:07:44.625Z,101397.13
2023-06-15T03:10:14.168Z,101396.13
2023-06-15T03:12:42.338Z,101396.22
2023-06-15T03:15:11.583Z,101395.41
2023-06-15T03:17:40.724Z,101389.16
2023-06-15T03:20:12.446Z,101381.97
2023-06-15T03:22:41.101Z,101390.84
2023-06-15T03:25:12.762Z,101393.53
2023-06-15T03:27:44.472Z,101395.41
2023-06-15T03:30:13.586Z,101397.13
2023-06-15T03:32:43.057Z,101390.03
2023-06-15T03:35:13.578Z,101397.13
2023-06-15T03:37:41.873Z,101396.22
2023-06-15T03:40:10.930Z,101400.75
2023-06-15T03:42:39.220Z,101397.13
2023-06-15T03:45:09.591Z,101401.59
2023-06-15T03:47:37.788Z,101394.78
2023-06-15T03:50:08.008Z,101398.00
2023-06-15T03:52:37.427Z,101322.09
2023-06-15T03:55:06.549Z,101307.47
2023-06-15T03:57:34.708Z,101398.81
2023-06-15T04:00:03.058Z,101397.84
2023-06-15T04:02:32.720Z,101414.09
2023-06-15T04:05:01.427Z,101410.41
2023-06-15T04:07:30.534Z,101408.72
2023-06-15T04:09:59.084Z,101406.88
2023-06-15T04:12:27.222Z,101402.50
2023-06-15T04:14:55.701Z,101293.94
2023-06-15T04:17:23.875Z,101397.13
2023-06-15T04:19:53.459Z,101331.56
2023-06-15T04:22:21.650Z,101303.81
2023-06-15T04:24:49.795Z,101412.34
2023-06-15T04:27:20.327Z,101402.50
2023-06-15T04:29:51.310Z,101401.59
2023-06-15T04:32:19.672Z,101374.94
2023-06-15T04:34:47.832Z,101396.22
2023-06-15T04:37:18.238Z,101394.44
2023-06-15T04:39:46.672Z,101393.44
2023-06-15T04:42:14.921Z,101397.13
2023-06-15T04:44:43.074Z,101393.44
2023-06-15T04:47:11.291Z,101393.44
2023-06-15T04:49:43.157Z,101398.81
2023-06-15T04:52:11.766Z,101393.66
2023-06-15T04:54:41.270Z,101391.75
2023-06-15T04:57:10.176Z,101391.75
2023-06-15T04:59:39.969Z,101294.56
2023-06-15T05:02:08.929Z,101292.00
2023-06-15T05:04:37.498Z,101393.53
2023-06-15T05:07:06.256Z,101397.13
2023-06-15T05:09:34.423Z,101399.81
2023-06-15T05:12:04.003Z,101402.50
2023-06-15T05:14:32.217Z,101406.03
2023-06-15T05:17:04.364Z,101407.84
2023-06-15T05:19:32.631Z,101408.81
2023-06-15T05:22:02.408Z,101322.81
2023-06-15T05:24:30.617Z,101400.75
2023-06-15T05:26:58.908Z,101400.75
2023-06-15T05:29:28.372Z,101281.41
2023-06-15T05:31:57.226Z,101400.75
2023-06-15T05:34:37.627Z,101371.50
2023-06-15T05:37:06.154Z,101407.84
2023-06-15T05:39:34.391Z,101415.91
2023-06-15T05:42:03.620Z,101407.84
2023-06-15T05:44:33.207Z,101333.56
2023-06-15T05:47:02.283Z,101397.34
2023-06-15T05:49:30.363Z,101407.84
2023-06-15T05:51:58.504Z,101409.56
2023-06-15T05:54:26.929Z,101408.81
2023-06-15T05:56:55.158Z,101413.22
2023-06-15T05:59:32.525Z,101409.78
2023-06-15T06:02:03.271Z,101423.97
2023-06-15T06:04:31.578Z,101421.28
2023-06-15T06:06:59.740Z,101429.34
2023-06-15T06:09:28.045Z,101380.44
2023-06-15T06:11:57.642Z,101411.50
2023-06-15T06:14:26.905Z,101411.50
2023-06-15T06:16:55.355Z,101415.91
2023-06-15T06:19:25.589Z,101410.53
2023-06-15T06:21:53.875Z,101400.28
2023-06-15T06:24:24.240Z,101413.22
2023-06-15T06:26:53.241Z,101413.22
2023-06-15T06:29:21.426Z,101411.50
2023-06-15T06:31:49.574Z,101409.56
2023-06-15T06:34:17.793Z,101397.84
2023-06-15T06:36:47.362Z,101410.63
2023-06-15T06:39:15.508Z,101411.50
2023-06-15T06:41:43.629Z,101417.69
2023-06-15T06:44:11.743Z,101343.91
2023-06-15T06:46:39.846Z,101317.09
2023-06-15T06:49:08.073Z,101413.44
2023-06-15T06:51:37.243Z,101418.59
2023-06-15T06:54:07.104Z,101418.81
2023-06-15T06:56:35.227Z,101422.22
2023-06-15T06:59:03.391Z,101410.81
2023-06-15T07:01:31.547Z,101400.69
2023-06-15T07:03:59.731Z,101438.34
2023-06-15T07:06:27.862Z,101441.97
2023-06-15T07:08:56.125Z,101435.66
2023-06-15T07:11:25.585Z,101454.69
2023-06-15T07:13:53.782Z,101407.38
2023-06-15T07:16:22.066Z,101438.34
2023-06-15T07:18:50.216Z,101436.59
2023-06-15T07:21:18.436Z,101438.34
2023-06-15T07:23:53.544Z,101430.28
2023-06-15T07:26:22.806Z,101426.41
2023-06-15T07:28:52.418Z,101412.25
2023-06-15T07:31:20.636Z,101347.66
2023-06-15T07:33:48.793Z,101427.59
2023-06-15T07:36:17.170Z,101295.31
2023-06-15T07:38:45.321Z,101429.34
2023-06-15T07:41:13.385Z,101328.69
2023-06-15T07:43:41.482Z,101433.81
2023-06-15T07:46:10.958Z,101430.19
2023-06-15T07:48:39.055Z,101431.03
2023-06-15T07:51:07.249Z,101403.00
2023-06-15T07:53:35.371Z,101424.19
2023-06-15T07:56:03.693Z,101434.69
2023-06-15T07:58:31.890Z,101431.03
2023-06-15T08:01:00.230Z,101425.88
2023-06-15T08:03:30.121Z,101425.88
2023-06-15T08:05:58.313Z,101425.66
2023-06-15T08:08:26.691Z,101425.66
2023-06-15T08:10:55.284Z,101429.34
2023-06-15T08:13:24.107Z,101429.34
2023-06-15T08:15:52.841Z,101312.13
2023-06-15T08:18:21.333Z,101393.00
2023-06-15T08:20:51.815Z,101424.81
2023-06-15T08:23:20.332Z,101431.03
2023-06-15T08:25:49.000Z,101415.13
2023-06-15T08:28:17.087Z,101403.47
2023-06-15T08:30:45.217Z,101413.44
2023-06-15T08:33:13.416Z,101423.97
2023-06-15T08:35:42.147Z,101416.13
2023-06-15T08:38:11.647Z,101418.59
2023-06-15T08:40:39.850Z,101420.28
2023-06-15T08:43:09.434Z,101418.59
2023-06-15T08:45:42.303Z,101421.28
2023-06-15T08:48:12.660Z,101414.31
2023-06-15T08:50:43.355Z,101322.81
2023-06-15T08:53:16.118Z,101415.91
2023-06-15T08:55:44.998Z,101419.47
2023-06-15T08:58:13.298Z,101431.03
2023-06-15T09:00:44.738Z,101419.47
2023-06-15T09:03:14.641Z,101422.97
2023-06-15T09:05:45.045Z,101424.81
2023-06-15T09:08:14.604Z,101317.22
2023-06-15T09:10:43.385Z,101422.22
2023-06-15T09:13:17.589Z,101335.25
2023-06-15T09:15:51.826Z,101347.41
2023-06-15T09:18:20.122Z,101430.28
2023-06-15T09:20:50.912Z,101424.44
2023-06-15T09:23:20.555Z,101432.97
2023-06-15T09:25:52.936Z,101427.59
2023-06-15T09:28:24.273Z,101430.28
2023-06-15T09:30:56.862Z,101427.59
2023-06-15T09:33:26.849Z,101427.97
2023-06-15T09:35:59.998Z,101420.28
2023-06-15T09:38:31.253Z,101423.97
2023-06-15T09:41:03.935Z,101422.22
2023-06-15T09:43:35.500Z,101436.41
2023-06-15T09:46:04.918Z,101428.34
2023-06-15T09:48:33.309Z,101352.31
2023-06-15T09:51:03.788Z,101327.47
2023-06-15T09:53:34.738Z,101420.28
2023-06-15T09:56:14.156Z,101422.03
2023-06-15T09:58:49.680Z,101422.03
2023-06-15T10:01:20.630Z,101420.28
2023-06-15T10:03:54.617Z,101410.63
2023-06-15T10:06:26.507Z,101326.75
2023-06-15T10:09:01.673Z,101413.22
2023-06-15T10:11:30.640Z,101411.28
2023-06-15T10:14:07.246Z,101410.41
2023-06-15T10:16:36.688Z,101404.19
2023-06-15T10:19:12.142Z,101404.19
2023-06-15T10:21:44.763Z,101311.84
2023-06-15T10:24:18.017Z,101390.03
2023-06-15T10:26:47.021Z,101398.81
2023-06-15T10:29:20.889Z,101395.19
2023-06-15T10:31:54.777Z,101310.13
2023-06-15T10:34:29.056Z,101400.53
2023-06-15T10:37:04.267Z,101387.34
2023-06-15T10:39:38.248Z,101398.81
2023-06-15T10:42:09.885Z,101400.53
2023-06-15T10:44:38.073Z,101390.28
2023-06-15T10:47:10.307Z,101400.53
2023-06-15T10:49:38.816Z,101393.44
2023-06-15T10:52:07.337Z,101389.81
2023-06-15T10:54:38.361Z,101391.97
2023-06-15T10:57:09.221Z,101398.81
2023-06-15T10:59:49.061Z,101393.44
2023-06-15T11:02:53.510Z,101391.75
2023-06-15T11:05:23.713Z,101395.41
2023-06-15T11:07:53.174Z,101359.94
2023-06-15T11:10:29.012Z,101390.84
2023-06-15T11:13:03.856Z,101385.50
2023-06-15T11:15:37.064Z,101388.09
2023-06-15T11:18:07.528Z,101382.72
2023-06-15T11:21:00.746Z,101381.75
2023-06-15T11:23:34.705Z,101375.75
2023-06-15T11:26:04.547Z,101286.97
2023-06-15T11:28:38.263Z,101381.97
2023-06-15T11:31:08.603Z,101379.28
2023-06-15T11:33:39.265Z,101375.66
2023-06-15T11:36:09.233Z,101370.28
2023-06-15T11:38:38.042Z,101372.97
2023-06-15T11:41:08.888Z,101375.66
2023-06-15T11:43:39.571Z,101373.94
2023-06-15T11:46:12.337Z,101371.97
2023-06-15T11:48:42.933Z,101377.34
2023-06-15T11:51:13.109Z,101375.66
2023-06-15T11:53:41.601Z,101375.66
2023-06-15T11:56:14.198Z,101369.28
2023-06-15T11:58:43.185Z,101291.84
2023-06-15T12:01:13.675Z,101364.91
2023-06-15T12:04:02.496Z,101353.19
2023-06-15T12:06:34.327Z,101277.38
2023-06-15T12:09:03.453Z,101361.25
2023-06-15T12:11:33.145Z,101354.19
2023-06-15T12:14:09.118Z,101349.03
2023-06-15T12:16:37.963Z,101357.59
2023-06-15T12:19:10.480Z,101350.50
2023-06-15T12:21:40.763Z,101343.66
2023-06-15T12:24:14.523Z,101361.25
2023-06-15T12:26:49.693Z,101192.50
2023-06-15T12:29:19.233Z,101349.56
2023-06-15T12:31:49.865Z,101341.50
2023-06-15T12:34:23.533Z,101346.00
2023-06-15T12:36:52.333Z,101345.16
2023-06-15T12:39:20.578Z,101346.88
2023-06-15T12:41:50.439Z,101339.78
2023-06-15T12:44:18.515Z,101334.41
2023-06-15T12:46:46.658Z,101319.06
2023-06-15T12:49:14.821Z,101340.63
2023-06-15T12:51:47.910Z,101252.09
2023-06-15T12:54:15.967Z,101336.13
2023-06-15T12:56:44.654Z,101336.13
2023-06-15T12:59:14.346Z,101323.66
2023-06-15T13:01:42.520Z,101313.94
2023-06-15T13:04:11.375Z,101316.09
2023-06-15T13:06:39.802Z,101335.13
2023-06-15T13:09:07.884Z,101334.41
2023-06-15T13:11:37.537Z,101330.78
2023-06-15T13:14:05.796Z,101251.50
2023-06-15T13:16:35.358Z,101324.53
2023-06-15T13:19:03.880Z,101325.41
2023-06-15T13:21:32.135Z,101309.53
2023-06-15T13:24:00.331Z,101323.66
2023-06-15T13:26:28.537Z,101322.72
2023-06-15T13:28:57.207Z,101314.66
2023-06-15T13:31:25.341Z,101314.66
2023-06-15T13:33:54.918Z,101303.94
2023-06-15T13:36:23.089Z,101303.94
2023-06-15T13:38:51.212Z,101303.06
2023-06-15T13:41:19.320Z,101309.28
2023-06-15T13:43:47.501Z,101312.94
2023-06-15T13:46:16.507Z,101303.94
2023-06-15T13:48:44.645Z,101285.13
2023-06-15T13:51:14.148Z,101303.94
2023-06-15T13:53:42.318Z,101288.31
2023-06-15T13:56:10.465Z,101277.56
2023-06-15T13:58:38.728Z,101283.28
2023-06-15T14:01:06.828Z,101179.78
2023-06-15T14:03:35.077Z,101220.81
2023-06-15T14:06:03.339Z,101283.63
2023-06-15T14:08:32.961Z,101290.38
2023-06-15T14:11:01.134Z,101287.09
2023-06-15T14:13:29.269Z,101279.25
2023-06-15T14:15:57.520Z,101287.81
2023-06-15T14:18:25.703Z,101253.19
2023-06-15T14:20:53.826Z,101255.69
2023-06-15T14:23:24.212Z,101278.78
2023-06-15T14:25:53.885Z,101282.47
2023-06-15T14:28:22.242Z,101286.09
2023-06-15T14:30:59.545Z,101277.09
2023-06-15T14:33:28.825Z,101282.47
2023-06-15T14:35:57.242Z,101132.78
2023-06-15T14:38:25.584Z,101277.09
2023-06-15T14:40:55.147Z,101282.47
2023-06-15T14:43:23.381Z,101273.41
2023-06-15T14:45:51.599Z,101209.88
2023-06-15T14:48:19.759Z,101261.81
2023-06-15T14:50:48.261Z,101265.50
2023-06-15T14:53:16.405Z,101275.38
2023-06-15T14:55:44.862Z,101263.91
2023-06-15T14:58:14.656Z,101268.19
2023-06-15T15:00:42.865Z,101271.72
2023-06-15T15:03:11.154Z,101266.22
2023-06-15T15:05:39.356Z,101254.13
2023-06-15T15:08:08.952Z,101259.00
2023-06-15T15:10:37.132Z,101263.53
2023-06-15T15:13:05.418Z,101253.63
2023-06-15T15:15:34.909Z,101229.78
2023-06-15T15:18:04.462Z,101248.28
2023-06-15T15:20:32.652Z,101258.19
2023-06-15T15:23:01.076Z,101219.81
2023-06-15T15:25:29.197Z,101251.94
2023-06-15T15:27:57.325Z,101256.44
2023-06-15T15:30:25.384Z,101246.56
2023-06-15T15:32:55.008Z,101240.22
2023-06-15T15:35:24.692Z,101242.19
2023-06-15T15:37:52.815Z,101244.88
2023-06-15T15:40:21.280Z,101240.56
2023-06-15T15:42:49.557Z,101236.31
2023-06-15T15:45:17.694Z,101234.38
2023-06-15T15:47:45.851Z,101253.63
2023-06-15T15:50:15.835Z,101250.00
2023-06-15T15:52:44.488Z,101257.31
2023-06-15T15:55:12.638Z,101244.88
2023-06-15T15:57:42.497Z,101253.63
2023-06-15T16:00:11.945Z,101250.00
2023-06-15T16:02:40.219Z,101255.34
2023-06-15T16:05:09.473Z,101240.94
2023-06-15T16:07:40.715Z,101244.63
2023-06-15T16:10:10.494Z,101229.53
2023-06-15T16:12:39.530Z,101222.28
2023-06-15T16:15:09.597Z,101220.59
2023-06-15T16:17:38.404Z,101217.78
2023-06-15T16:20:08.042Z,101210.69
2023-06-15T16:22:36.510Z,101216.06
2023-06-15T16:25:06.728Z,101103.72
2023-06-15T16:27:35.053Z,101146.25
2023-06-15T16:30:03.185Z,101221.44
2023-06-15T16:32:31.407Z,101215.22
2023-06-15T16:34:59.474Z,101221.91
2023-06-15T16:37:27.688Z,101205.31
2023-06-15T16:39:57.074Z,101081.88
2023-06-15T16:42:30.312Z,101199.97
2023-06-15T16:45:01.335Z,101203.38
2023-06-15T16:47:30.229Z,101214.09
2023-06-15T16:49:59.791Z,101191.97
2023-06-15T16:52:29.692Z,101130.69
2023-06-15T16:54:58.093Z,101192.63
2023-06-15T16:57:27.935Z,101189.22
2023-06-15T16:59:56.090Z,101189.22
2023-06-15T17:02:24.215Z,101186.53
2023-06-15T17:04:54.454Z,101194.59
2023-06-15T17:07:22.673Z,101118.00
2023-06-15T17:09:50.951Z,101183.84
2023-06-15T17:12:19.085Z,101187.28
2023-06-15T17:14:50.715Z,101188.97
2023-06-15T17:17:18.893Z,101172.41
2023-06-15T17:19:46.990Z,101187.28
2023-06-15T17:22:15.247Z,101182.75
2023-06-15T17:24:43.464Z,101180.91
2023-06-15T17:27:12.875Z,101187.13
2023-06-15T17:29:41.173Z,101174.84
2023-06-15T17:32:11.965Z,101176.53
2023-06-15T17:34:40.295Z,101182.75
2023-06-15T17:37:08.570Z,101181.91
2023-06-15T17:39:36.874Z,101174.13
2023-06-15T17:42:05.377Z,101181.91
2023-06-15T17:44:33.462Z,101188.97
2023-06-15T17:47:01.933Z,101187.28
2023-06-15T17:49:31.457Z,101190.94
2023-06-15T17:51:59.602Z,101180.91
2023-06-15T17:54:27.998Z,101186.28
2023-06-15T17:56:56.162Z,101179.94
2023-06-15T17:59:24.450Z,101182.63
2023-06-15T18:01:52.666Z,101179.94
2023-06-15T18:04:21.725Z,101176.53
2023-06-15T18:06:51.349Z,101179.94
2023-06-15T18:09:19.438Z,101179.94
2023-06-15T18:11:47.644Z,101178.22
2023-06-15T18:14:15.909Z,101170.16
2023-06-15T18:16:44.068Z,101172.84
2023-06-15T18:19:12.209Z,101172.84
2023-06-15T18:21:40.868Z,101172.84
2023-06-15T18:24:13.026Z,101171.16
2023-06-15T18:26:46.058Z,101178.22
2023-06-15T18:29:14.508Z,101172.84
2023-06-15T18:31:42.666Z,101183.59
2023-06-15T18:34:15.318Z,101179.94
2023-06-15T18:36:43.930Z,101178.22
2023-06-15T18:39:15.387Z,101183.59
2023-06-15T18:41:43.583Z,101178.22
2023-06-15T18:44:11.966Z,101172.03
2023-06-15T18:46:40.051Z,101172.84
2023-06-15T18:49:08.368Z,101084.38
2023-06-15T18:51:36.516Z,101167.50
2023-06-15T18:54:04.946Z,101172.84
2023-06-15T18:56:34.540Z,101158.75
2023-06-15T18:59:02.730Z,101183.59
2023-06-15T19:01:31.078Z,101017.69
2023-06-15T19:03:59.234Z,101179.22
2023-06-15T19:06:27.452Z,101183.59
2023-06-15T19:08:55.672Z,101178.22
2023-06-15T19:11:23.761Z,101154.13
2023-06-15T19:13:53.299Z,101179.94
2023-06-15T19:16:21.608Z,101099.94
2023-06-15T19:18:49.774Z,101178.22
2023-06-15T19:21:17.916Z,101142.50
2023-06-15T19:23:47.911Z,101180.91
2023-06-15T19:26:18.293Z,101166.81
2023-06-15T19:28:49.030Z,101178.22
2023-06-15T19:31:20.219Z,101152.41
2023-06-15T19:33:48.321Z,101182.75
2023-06-15T19:36:19.219Z,101082.41
2023-06-15T19:39:01.108Z,101089.16
2023-06-15T19:41:30.857Z,101178.22
2023-06-15T19:43:59.287Z,101178.22
2023-06-15T19:46:28.970Z,101168.34
2023-06-15T19:48:57.120Z,101170.91
2023-06-15T19:51:25.336Z,101181.63
2023-06-15T19:53:53.965Z,101181.63
2023-06-15T19:56:23.642Z,101183.59
2023-06-15T19:58:51.866Z,101182.50
2023-06-15T20:01:20.330Z,101181.63
2023-06-15T20:03:50.244Z,101099.81
2023-06-15T20:06:18.505Z,101170.31
2023-06-15T20:08:46.904Z,101177.97
2023-06-15T20:11:15.072Z,101013.53
2023-06-15T20:13:43.529Z,101164.09
2023-06-15T20:16:31.653Z,101172.59
2023-06-15T20:19:01.520Z,101141.97
2023-06-15T20:21:30.173Z,101164.69
2023-06-15T20:23:58.394Z,101167.22
2023-06-15T20:26:28.539Z,101148.97
2023-06-15T20:28:56.818Z,101174.59
2023-06-15T20:31:25.029Z,101165.53
2023-06-15T20:33:53.182Z,101080.97
2023-06-15T20:36:22.858Z,101157.47
2023-06-15T20:38:51.321Z,101160.16
2023-06-15T20:41:19.670Z,101152.50
2023-06-15T20:43:48.271Z,101043.06
2023-06-15T20:46:19.862Z,101154.81
2023-06-15T20:48:50.109Z,101128.97
2023-06-15T20:51:18.277Z,101147.75
2023-06-15T20:53:47.787Z,101142.38
2023-06-15T20:56:16.230Z,101139.81
2023-06-15T20:58:44.897Z,101142.38
2023-06-15T21:01:13.119Z,101095.88
2023-06-15T21:03:41.453Z,101135.28
2023-06-15T21:06:09.680Z,101070.44
2023-06-15T21:08:39.922Z,101130.78
2023-06-15T21:11:11.994Z,101129.91
2023-06-15T21:13:40.123Z,100968.34
2023-06-15T21:16:08.387Z,101132.47
2023-06-15T21:18:37.024Z,101126.28
2023-06-15T21:21:06.264Z,101120.91
2023-06-15T21:23:35.419Z,101126.28
2023-06-15T21:26:04.585Z,101120.91
2023-06-15T21:28:35.678Z,101080.31
2023-06-15T21:31:04.433Z,101118.22
2023-06-15T21:33:32.563Z,101121.72
2023-06-15T21:36:00.693Z,101120.91
2023-06-15T21:38:28.761Z,101027.34
2023-06-15T21:40:56.970Z,101121.59
2023-06-15T21:43:25.392Z,101111.00
2023-06-15T21:45:57.310Z,101111.84
2023-06-15T21:48:25.608Z,101114.53
2023-06-15T21:50:53.739Z,101110.88
2023-06-15T21:53:22.170Z,101103.06
2023-06-15T21:55:51.611Z,101099.44
2023-06-15T21:58:19.696Z,101104.81
2023-06-15T22:00:49.024Z,101099.44
2023-06-15T22:03:18.712Z,101094.06
2023-06-15T22:05:47.067Z,101091.38
2023-06-15T22:08:15.734Z,101088.69
2023-06-15T22:10:43.852Z,101078.63
2023-06-15T22:13:15.660Z,101092.34
2023-06-15T22:15:43.861Z,101094.06
2023-06-15T22:18:12.064Z,101085.00
2023-06-15T22:20:43.181Z,101078.78
2023-06-15T22:23:11.349Z,101083.19
2023-06-15T22:25:47.257Z,101075.81
2023-06-15T22:28:23.149Z,101085.00
2023-06-15T22:30:51.668Z,101080.66
2023-06-15T22:33:24.204Z,101080.66
2023-06-15T22:35:54.558Z,101077.97
2023-06-15T22:38:22.820Z,101085.00
2023-06-15T22:40:51.334Z,101074.69
2023-06-15T22:43:19.984Z,101080.50
2023-06-15T22:45:48.162Z,101079.66
2023-06-15T22:48:21.766Z,101074.53
2023-06-15T22:50:55.794Z,101006.25
2023-06-15T22:53:26.334Z,101036.59
2023-06-15T22:55:54.897Z,101068.91
2023-06-15T22:58:26.170Z,101064.41
2023-06-15T23:00:56.178Z,101063.53
2023-06-15T23:03:24.715Z,101063.53
2023-06-15T23:05:52.974Z,101065.22
2023-06-15T23:08:23.234Z,101063.53
2023-06-15T23:10:54.154Z,101063.53
2023-06-15T23:13:22.942Z,101056.50
2023-06-15T23:15:56.282Z,101057.19
2023-06-15T23:18:28.300Z,101055.50
2023-06-15T23:21:00.725Z,100951.13
2023-06-15T23:23:34.990Z,101055.50
2023-06-15T23:26:06.789Z,101034.34
2023-06-15T23:28:35.098Z,101047.44
2023-06-15T23:31:03.176Z,101052.81
2023-06-15T23:33:31.333Z,101046.03
2023-06-15T23:35:59.512Z,101033.56
2023-06-15T23:38:27.658Z,100977.03
2023-06-15T23:40:55.712Z,101042.06
2023-06-15T23:43:25.196Z,101047.44
2023-06-15T23:45:53.371Z,101051.13
2023-06-15T23:48:24.268Z,101047.44
2023-06-15T23:50:52.379Z,101053.66
2023-06-15T23:53:20.827Z,101045.75
2023-06-15T23:55:49.792Z,101049.41
2023-06-15T23:58:17.916Z,101046.72
